Terminal Aerodrome Forecast
Issued by NWS

Current Version | Previous Version | Text Only | Print | Product List | Glossary On
Versions: 1 2 3 4 5 6 7 8 9 10 11 12 13 14 15 16 17
000
FTUS42 KTBW 262344
TAFPIE
TAF
KPIE 262344Z 2700/2724 13007KT P6SM VCSH SCT020 BKN080 OVC110
      TEMPO 2700/2703 4SM SHRA BKN020 OVC080
     FM270300 11013KT 6SM -SHRA BKN020 OVC040
     FM270600 09016G24KT 6SM SHRA VCTS SCT007 BKN015CB OVC040
     FM271400 14017G25KT 6SM SHRA VCTS BKN010 OVC025CB
     FM271700 17019G28KT 6SM SHRA VCTS SCT015 OVC025CB=

USA.gov is the U.S. government's official web portal to all federal, state and local government web resources and services.